createdAt,value
2022-08-21T00:00:07.613Z,994.79
2022-08-21T00:01:07.584Z,994.81
2022-08-21T00:02:07.613Z,994.81
2022-08-21T00:03:07.557Z,994.82
2022-08-21T00:04:07.541Z,994.80
2022-08-21T00:05:07.527Z,994.81
2022-08-21T00:06:07.524Z,994.77
2022-08-21T00:07:07.498Z,994.78
2022-08-21T00:08:07.481Z,994.74
2022-08-21T00:09:07.470Z,994.75
2022-08-21T00:10:07.454Z,994.73
2022-08-21T00:11:07.445Z,994.73
2022-08-21T00:12:07.424Z,994.74
2022-08-21T00:13:07.411Z,994.78
2022-08-21T00:14:07.399Z,994.73
2022-08-21T00:15:08.569Z,994.74
2022-08-21T00:16:07.369Z,994.70
2022-08-21T00:17:07.356Z,994.68
2022-08-21T00:18:07.339Z,994.72
2022-08-21T00:19:07.336Z,994.65
2022-08-21T00:20:07.308Z,994.62
2022-08-21T00:21:07.301Z,994.67
2022-08-21T00:22:07.283Z,994.67
2022-08-21T00:23:07.269Z,994.68
2022-08-21T00:24:07.680Z,994.64
2022-08-21T00:25:07.253Z,994.67
2022-08-21T00:26:07.222Z,994.62
2022-08-21T00:27:07.213Z,994.61
2022-08-21T00:28:07.196Z,994.61
2022-08-21T00:29:07.182Z,994.61
2022-08-21T00:30:07.170Z,994.61
2022-08-21T00:31:07.152Z,994.61
2022-08-21T00:32:07.135Z,994.60
2022-08-21T00:33:07.124Z,994.61
2022-08-21T00:34:07.108Z,994.62
2022-08-21T00:35:07.097Z,994.61
2022-08-21T00:36:07.079Z,994.59
2022-08-21T00:37:07.084Z,994.65
2022-08-21T00:38:07.053Z,994.63
2022-08-21T00:39:07.038Z,994.65
2022-08-21T00:40:07.067Z,994.62
2022-08-21T00:41:21.013Z,994.61
2022-08-21T00:42:06.992Z,994.64
2022-08-21T00:43:06.986Z,994.60
2022-08-21T00:44:06.966Z,994.60
2022-08-21T00:45:06.969Z,994.59
2022-08-21T00:46:06.938Z,994.59
2022-08-21T00:47:06.922Z,994.59
2022-08-21T00:48:06.904Z,994.58
2022-08-21T00:49:06.895Z,994.56
2022-08-21T00:50:06.891Z,994.55
2022-08-21T00:51:06.863Z,994.57
2022-08-21T00:52:06.847Z,994.59
2022-08-21T00:53:06.838Z,994.54
2022-08-21T00:54:06.822Z,994.51
2022-08-21T00:55:06.806Z,994.51
2022-08-21T00:56:06.791Z,994.52
2022-08-21T00:57:06.776Z,994.45
2022-08-21T00:58:06.762Z,994.48
2022-08-21T00:59:06.765Z,994.47
2022-08-21T01:00:06.731Z,994.45
2022-08-21T01:01:08.731Z,994.51
2022-08-21T01:02:06.706Z,994.52
2022-08-21T01:03:07.401Z,994.47
2022-08-21T01:04:06.674Z,994.50
2022-08-21T01:05:06.661Z,994.48
2022-08-21T01:06:06.648Z,994.52
2022-08-21T01:07:06.633Z,994.52
2022-08-21T01:08:06.616Z,994.52
2022-08-21T01:09:06.605Z,994.49
2022-08-21T01:10:06.586Z,994.53
2022-08-21T01:11:06.575Z,994.53
2022-08-21T01:12:06.561Z,994.54
2022-08-21T01:13:06.544Z,994.58
2022-08-21T01:14:06.530Z,994.53
2022-08-21T01:15:06.516Z,994.55
2022-08-21T01:16:06.560Z,994.52
2022-08-21T01:17:06.486Z,994.51
2022-08-21T01:18:06.471Z,994.50
2022-08-21T01:19:06.477Z,994.52
2022-08-21T01:20:06.444Z,994.57
2022-08-21T01:21:06.428Z,994.54
2022-08-21T01:22:06.415Z,994.53
2022-08-21T01:23:06.401Z,994.54
2022-08-21T01:24:06.386Z,994.55
2022-08-21T01:25:06.371Z,994.56
2022-08-21T01:26:06.353Z,994.55
2022-08-21T01:27:06.340Z,994.54
2022-08-21T01:28:06.337Z,994.54
2022-08-21T01:29:06.314Z,994.54
2022-08-21T01:30:06.534Z,994.58
2022-08-21T01:31:06.284Z,994.52
2022-08-21T01:32:06.268Z,994.52
2022-08-21T01:33:06.254Z,994.53
2022-08-21T01:34:06.237Z,994.48
2022-08-21T01:35:06.232Z,994.49
2022-08-21T01:36:06.208Z,994.50
2022-08-21T01:37:06.195Z,994.50
2022-08-21T01:38:06.183Z,994.49
2022-08-21T01:39:06.166Z,994.50
2022-08-21T01:40:06.290Z,994.51
2022-08-21T01:41:06.136Z,994.50
2022-08-21T01:42:06.121Z,994.52
2022-08-21T01:43:06.128Z,994.51
2022-08-21T01:44:06.089Z,994.54
2022-08-21T01:45:06.078Z,994.52
2022-08-21T01:46:06.969Z,994.50
2022-08-21T01:47:06.048Z,994.49
2022-08-21T01:48:06.033Z,994.47
2022-08-21T01:49:06.019Z,994.48
2022-08-21T01:50:06.002Z,994.52
2022-08-21T01:51:05.988Z,994.55
2022-08-21T01:52:05.973Z,994.51
2022-08-21T01:53:05.961Z,994.56
2022-08-21T01:54:05.945Z,994.55
2022-08-21T01:55:05.930Z,994.53
2022-08-21T01:56:05.915Z,994.54
2022-08-21T01:57:05.901Z,994.57
2022-08-21T01:58:05.884Z,994.54
2022-08-21T01:59:05.869Z,994.55
2022-08-21T02:00:05.857Z,994.51
2022-08-21T02:01:05.906Z,994.50
2022-08-21T02:02:05.838Z,994.53
2022-08-21T02:03:05.812Z,994.51
2022-08-21T02:04:05.797Z,994.53
2022-08-21T02:05:05.783Z,994.52
2022-08-21T02:06:05.767Z,994.53
2022-08-21T02:07:07.095Z,994.53
2022-08-21T02:08:05.737Z,994.46
2022-08-21T02:09:05.724Z,994.45
2022-08-21T02:10:05.710Z,994.47
2022-08-21T02:11:05.694Z,994.42
2022-08-21T02:12:05.679Z,994.43
2022-08-21T02:13:05.665Z,994.41
2022-08-21T02:14:05.649Z,994.41
2022-08-21T02:15:05.637Z,994.38
2022-08-21T02:16:05.622Z,994.36
2022-08-21T02:17:09.287Z,994.35
2022-08-21T02:18:05.596Z,994.38
2022-08-21T02:19:05.576Z,994.37
2022-08-21T02:20:05.566Z,994.35
2022-08-21T02:21:05.546Z,994.34
2022-08-21T02:22:05.533Z,994.31
2022-08-21T02:23:05.515Z,994.32
2022-08-21T02:24:05.503Z,994.33
2022-08-21T02:25:05.487Z,994.29
2022-08-21T02:26:05.478Z,994.32
2022-08-21T02:27:05.456Z,994.31
2022-08-21T02:28:05.461Z,994.28
2022-08-21T02:29:05.431Z,994.28
2022-08-21T02:30:05.415Z,994.29
2022-08-21T02:31:05.400Z,994.28
2022-08-21T02:32:05.385Z,994.26
2022-08-21T02:33:05.369Z,994.26
2022-08-21T02:34:05.358Z,994.29
2022-08-21T02:35:05.338Z,994.27
2022-08-21T02:36:05.324Z,994.29
2022-08-21T02:37:05.309Z,994.27
2022-08-21T02:38:05.297Z,994.24
2022-08-21T02:39:05.278Z,994.26
2022-08-21T02:40:05.320Z,994.27
2022-08-21T02:41:05.252Z,994.27
2022-08-21T02:42:05.236Z,994.33
2022-08-21T02:43:05.221Z,994.30
2022-08-21T02:44:05.206Z,994.23
2022-08-21T02:45:05.191Z,994.26
2022-08-21T02:46:05.177Z,994.28
2022-08-21T02:47:05.162Z,994.30
2022-08-21T02:48:05.147Z,994.27
2022-08-21T02:49:05.133Z,994.25
2022-08-21T02:50:05.119Z,994.25
2022-08-21T02:51:05.102Z,994.22
2022-08-21T02:52:05.087Z,994.25
2022-08-21T02:53:05.073Z,994.21
2022-08-21T02:54:05.061Z,994.22
2022-08-21T02:55:05.042Z,994.24
2022-08-21T02:56:05.031Z,994.21
2022-08-21T02:57:05.013Z,994.23
2022-08-21T02:58:05.000Z,994.20
2022-08-21T02:59:04.982Z,994.18
2022-08-21T03:00:04.970Z,994.20
2022-08-21T03:01:04.953Z,994.22
2022-08-21T03:02:04.994Z,994.23
2022-08-21T03:03:04.935Z,994.18
2022-08-21T03:04:04.930Z,994.17
2022-08-21T03:05:04.896Z,994.19
2022-08-21T03:06:04.881Z,994.19
2022-08-21T03:07:04.866Z,994.17
2022-08-21T03:08:04.851Z,994.16
2022-08-21T03:09:04.858Z,994.17
2022-08-21T03:10:04.833Z,994.20
2022-08-21T03:11:04.808Z,994.23
2022-08-21T03:12:04.800Z,994.24
2022-08-21T03:13:04.776Z,994.19
2022-08-21T03:14:04.779Z,994.25
2022-08-21T03:15:04.748Z,994.21
2022-08-21T03:16:05.404Z,994.22
2022-08-21T03:17:04.718Z,994.23
2022-08-21T03:18:04.705Z,994.26
2022-08-21T03:19:04.704Z,994.25
2022-08-21T03:20:04.697Z,994.25
2022-08-21T03:21:04.662Z,994.25
2022-08-21T03:22:04.645Z,994.25
2022-08-21T03:23:07.699Z,994.26
2022-08-21T03:24:04.613Z,994.24
2022-08-21T03:25:06.283Z,994.29
2022-08-21T03:26:04.585Z,994.28
2022-08-21T03:27:04.568Z,994.28
2022-08-21T03:28:04.556Z,994.30
2022-08-21T03:29:04.541Z,994.30
2022-08-21T03:30:04.527Z,994.27
2022-08-21T03:31:04.508Z,994.29
2022-08-21T03:32:04.494Z,994.31
2022-08-21T03:33:04.480Z,994.30
2022-08-21T03:34:04.465Z,994.27
2022-08-21T03:35:04.452Z,994.33
2022-08-21T03:36:04.437Z,994.36
2022-08-21T03:37:04.420Z,994.35
2022-08-21T03:38:04.405Z,994.33
2022-08-21T03:39:04.389Z,994.38
2022-08-21T03:40:04.425Z,994.34
2022-08-21T03:41:04.359Z,994.36
2022-08-21T03:42:04.350Z,994.39
2022-08-21T03:43:04.329Z,994.43
2022-08-21T03:44:04.321Z,994.43
2022-08-21T03:45:04.299Z,994.41
2022-08-21T03:46:04.295Z,994.40
2022-08-21T03:47:04.269Z,994.41
2022-08-21T03:48:04.257Z,994.40
2022-08-21T03:49:04.239Z,994.40
2022-08-21T03:50:04.235Z,994.41
2022-08-21T03:51:04.210Z,994.41
2022-08-21T03:52:04.197Z,994.41
2022-08-21T03:53:04.187Z,994.41
2022-08-21T03:54:04.166Z,994.41
2022-08-21T03:55:04.150Z,994.44
2022-08-21T03:56:04.136Z,994.46
2022-08-21T03:57:04.124Z,994.46
2022-08-21T03:58:16.634Z,994.45
2022-08-21T03:59:04.089Z,994.49
2022-08-21T04:00:04.077Z,994.48
2022-08-21T04:01:04.082Z,994.50
2022-08-21T04:02:04.119Z,994.48
2022-08-21T04:03:04.030Z,994.51
2022-08-21T04:04:04.017Z,994.54
2022-08-21T04:05:04.004Z,994.51
2022-08-21T04:06:03.986Z,994.53
2022-08-21T04:07:03.969Z,994.53
2022-08-21T04:08:03.957Z,994.57
2022-08-21T04:09:03.946Z,994.57
2022-08-21T04:10:03.928Z,994.56
2022-08-21T04:11:03.917Z,994.55
2022-08-21T04:12:03.899Z,994.61
2022-08-21T04:13:03.881Z,994.59
2022-08-21T04:14:03.868Z,994.61
2022-08-21T04:15:03.853Z,994.61
2022-08-21T04:16:03.834Z,994.64
2022-08-21T04:17:03.841Z,994.67
2022-08-21T04:18:03.808Z,994.65
2022-08-21T04:19:03.790Z,994.69
2022-08-21T04:20:03.778Z,994.70
2022-08-21T04:21:03.762Z,994.75
2022-08-21T04:22:03.745Z,994.69
2022-08-21T04:23:03.728Z,994.71
2022-08-21T04:24:03.713Z,994.72
2022-08-21T04:25:03.698Z,994.74
2022-08-21T04:26:03.694Z,994.72
2022-08-21T04:27:03.691Z,994.74
2022-08-21T04:28:03.655Z,994.73
2022-08-21T04:29:03.642Z,994.76
2022-08-21T04:30:03.624Z,994.74
2022-08-21T04:31:03.608Z,994.75
2022-08-21T04:32:03.593Z,994.73
2022-08-21T04:33:03.577Z,994.76
2022-08-21T04:34:03.569Z,994.78
2022-08-21T04:35:03.550Z,994.80
2022-08-21T04:36:03.532Z,994.79
2022-08-21T04:37:03.525Z,994.82
2022-08-21T04:38:03.504Z,994.82
2022-08-21T04:39:03.623Z,994.79
2022-08-21T04:40:03.504Z,994.81
2022-08-21T04:41:03.458Z,994.85
2022-08-21T04:42:03.443Z,994.85
2022-08-21T04:43:03.426Z,994.87
2022-08-21T04:44:03.411Z,994.88
2022-08-21T04:45:03.398Z,994.85
2022-08-21T04:46:03.385Z,994.87
2022-08-21T04:47:03.364Z,994.92
2022-08-21T04:48:03.360Z,994.92
2022-08-21T04:49:03.333Z,994.91
2022-08-21T04:50:03.323Z,994.94
2022-08-21T04:51:03.305Z,994.92
2022-08-21T04:52:03.291Z,994.91
2022-08-21T04:53:03.289Z,994.95
2022-08-21T04:54:03.262Z,994.97
2022-08-21T04:55:03.245Z,994.95
2022-08-21T04:56:03.231Z,994.97
2022-08-21T04:57:03.217Z,995.00
2022-08-21T04:58:03.202Z,995.00
2022-08-21T04:59:03.184Z,994.98
2022-08-21T05:00:03.171Z,995.00
2022-08-21T05:01:03.154Z,995.06
2022-08-21T05:02:03.141Z,995.02
2022-08-21T05:03:03.127Z,995.04
2022-08-21T05:04:03.110Z,995.07
2022-08-21T05:05:03.095Z,995.07
2022-08-21T05:06:03.081Z,995.07
2022-08-21T05:07:03.063Z,995.07
2022-08-21T05:08:03.049Z,995.10
2022-08-21T05:09:03.036Z,995.08
2022-08-21T05:10:03.020Z,995.07
2022-08-21T05:11:03.006Z,995.08
2022-08-21T05:12:02.991Z,995.05
2022-08-21T05:13:02.988Z,995.09
2022-08-21T05:14:02.962Z,995.09
2022-08-21T05:15:02.944Z,995.08
2022-08-21T05:16:02.931Z,995.08
2022-08-21T05:17:02.913Z,995.06
2022-08-21T05:18:02.910Z,995.12
2022-08-21T05:19:02.884Z,995.09
2022-08-21T05:20:02.870Z,995.10
2022-08-21T05:21:02.857Z,995.11
2022-08-21T05:22:02.842Z,995.12
2022-08-21T05:23:02.824Z,995.18
2022-08-21T05:24:02.811Z,995.17
2022-08-21T05:25:02.795Z,995.16
2022-08-21T05:26:02.786Z,995.20
2022-08-21T05:27:03.859Z,995.21
2022-08-21T05:28:02.752Z,995.26
2022-08-21T05:29:02.738Z,995.25
2022-08-21T05:30:02.722Z,995.25
2022-08-21T05:31:02.708Z,995.21
2022-08-21T05:32:02.693Z,995.18
2022-08-21T05:33:02.674Z,995.18
2022-08-21T05:34:02.662Z,995.20
2022-08-21T05:35:02.646Z,995.16
2022-08-21T05:36:02.634Z,995.18
2022-08-21T05:37:07.352Z,995.19
2022-08-21T05:38:02.603Z,995.20
2022-08-21T05:39:02.586Z,995.22
2022-08-21T05:40:05.137Z,995.20
2022-08-21T05:41:02.625Z,995.22
2022-08-21T05:42:02.546Z,995.19
2022-08-21T05:43:02.832Z,995.24
2022-08-21T05:44:02.520Z,995.21
2022-08-21T05:45:02.506Z,995.21
2022-08-21T05:46:02.502Z,995.20
2022-08-21T05:47:02.487Z,995.18
2022-08-21T05:48:02.467Z,995.21
2022-08-21T05:49:02.468Z,995.21
2022-08-21T05:50:02.449Z,995.22
2022-08-21T05:51:02.412Z,995.16
2022-08-21T05:52:02.401Z,995.13
2022-08-21T05:53:07.273Z,995.12
2022-08-21T05:54:02.370Z,995.10
2022-08-21T05:55:02.355Z,995.15
2022-08-21T05:56:02.340Z,995.13
2022-08-21T05:57:02.327Z,995.13
2022-08-21T05:58:02.314Z,995.15
2022-08-21T05:59:02.301Z,995.12
2022-08-21T06:00:02.287Z,995.13
2022-08-21T06:01:02.360Z,995.12
2022-08-21T06:02:05.555Z,995.11
2022-08-21T06:03:02.241Z,995.11
2022-08-21T06:04:02.230Z,995.14
2022-08-21T06:05:02.213Z,995.13
2022-08-21T06:06:02.207Z,995.09
2022-08-21T06:07:02.188Z,995.06
2022-08-21T06:08:02.171Z,995.08
2022-08-21T06:09:02.156Z,995.09
2022-08-21T06:10:02.146Z,995.08
2022-08-21T06:11:02.134Z,995.06
2022-08-21T06:12:02.117Z,995.09
2022-08-21T06:13:02.102Z,995.10
2022-08-21T06:14:02.089Z,995.13
2022-08-21T06:15:02.079Z,995.14
2022-08-21T06:16:02.062Z,995.09
2022-08-21T06:17:02.060Z,995.12
2022-08-21T06:18:02.035Z,995.11
2022-08-21T06:19:03.157Z,995.12
2022-08-21T06:20:02.008Z,995.12
2022-08-21T06:21:01.996Z,995.10
2022-08-21T06:22:01.985Z,995.12
2022-08-21T06:23:01.967Z,995.15
2022-08-21T06:24:01.957Z,995.14
2022-08-21T06:25:01.944Z,995.15
2022-08-21T06:26:01.928Z,995.17
2022-08-21T06:27:01.916Z,995.19
2022-08-21T06:28:01.911Z,995.24
2022-08-21T06:29:01.889Z,995.26
2022-08-21T06:30:01.882Z,995.31
2022-08-21T06:31:01.860Z,995.31
2022-08-21T06:32:01.849Z,995.31
2022-08-21T06:33:01.836Z,995.30
2022-08-21T06:34:01.824Z,995.32
2022-08-21T06:35:01.810Z,995.30
2022-08-21T06:36:01.798Z,995.31
2022-08-21T06:37:01.789Z,995.31
2022-08-21T06:38:01.796Z,995.33
2022-08-21T06:39:01.761Z,995.35
2022-08-21T06:40:01.783Z,995.31
2022-08-21T06:41:01.735Z,995.32
2022-08-21T06:42:01.722Z,995.27
2022-08-21T06:43:01.707Z,995.30
2022-08-21T06:44:01.695Z,995.30
2022-08-21T06:45:01.682Z,995.31
2022-08-21T06:46:01.669Z,995.29
2022-08-21T06:47:01.658Z,995.31
2022-08-21T06:48:01.642Z,995.26
2022-08-21T06:49:01.630Z,995.28
2022-08-21T06:50:01.620Z,995.31
2022-08-21T06:51:01.607Z,995.30
2022-08-21T06:52:01.594Z,995.26
2022-08-21T06:53:01.581Z,995.27
2022-08-21T06:54:01.572Z,995.27
2022-08-21T06:55:01.555Z,995.25
2022-08-21T06:56:01.548Z,995.29
2022-08-21T06:57:01.542Z,995.29
2022-08-21T06:58:01.527Z,995.28
2022-08-21T06:59:01.506Z,995.26
2022-08-21T07:00:01.500Z,995.27
2022-08-21T07:01:01.672Z,995.25
2022-08-21T07:02:01.542Z,995.28
2022-08-21T07:03:01.456Z,995.29
2022-08-21T07:04:01.446Z,995.27
2022-08-21T07:05:01.433Z,995.26
2022-08-21T07:06:01.420Z,995.30
2022-08-21T07:07:01.409Z,995.29
2022-08-21T07:08:01.395Z,995.26
2022-08-21T07:09:01.385Z,995.30
2022-08-21T07:10:01.371Z,995.26
2022-08-21T07:11:01.358Z,995.32
2022-08-21T07:12:01.348Z,995.31
2022-08-21T07:13:01.860Z,995.29
2022-08-21T07:14:01.332Z,995.34
2022-08-21T07:15:01.318Z,995.28
2022-08-21T07:16:04.125Z,995.28
2022-08-21T07:17:01.297Z,995.31
2022-08-21T07:18:01.279Z,995.29
2022-08-21T07:19:01.271Z,995.29
2022-08-21T07:20:01.253Z,995.28
2022-08-21T07:21:01.245Z,995.26
2022-08-21T07:22:01.229Z,995.26
2022-08-21T07:23:01.226Z,995.26
2022-08-21T07:24:01.209Z,995.26
2022-08-21T07:25:01.199Z,995.26
2022-08-21T07:26:01.185Z,995.24
2022-08-21T07:27:01.175Z,995.21
2022-08-21T07:28:01.163Z,995.20
2022-08-21T07:29:01.155Z,995.20
2022-08-21T07:30:01.137Z,995.23
2022-08-21T07:31:01.130Z,995.20
2022-08-21T07:32:01.116Z,995.20
2022-08-21T07:33:01.242Z,995.19
2022-08-21T07:34:01.096Z,995.19
2022-08-21T07:35:01.084Z,995.22
2022-08-21T07:36:01.071Z,995.18
2022-08-21T07:37:09.859Z,995.20
2022-08-21T07:38:01.052Z,995.16
2022-08-21T07:39:01.041Z,995.15
2022-08-21T07:40:01.080Z,995.13
2022-08-21T07:41:01.023Z,995.15
2022-08-21T07:42:03.961Z,995.16
2022-08-21T07:43:01.035Z,995.10
2022-08-21T07:44:00.990Z,995.09
2022-08-21T07:45:00.979Z,995.07
2022-08-21T07:46:00.970Z,995.09
2022-08-21T07:47:00.969Z,995.05
2022-08-21T07:48:00.948Z,995.08
2022-08-21T07:49:00.942Z,995.07
2022-08-21T07:50:00.931Z,995.08
2022-08-21T07:51:00.919Z,995.10
2022-08-21T07:52:00.907Z,995.07
2022-08-21T07:53:01.095Z,995.10
2022-08-21T07:54:00.890Z,995.10
2022-08-21T07:55:05.854Z,995.09
2022-08-21T07:56:00.871Z,995.10
2022-08-21T07:57:00.864Z,995.10
2022-08-21T07:58:00.851Z,995.07
2022-08-21T07:59:00.844Z,995.13
2022-08-21T08:00:00.838Z,995.16
2022-08-21T08:01:00.878Z,995.10
2022-08-21T08:02:00.818Z,995.09
2022-08-21T08:03:00.924Z,995.10
2022-08-21T08:04:00.797Z,995.10
2022-08-21T08:05:00.791Z,995.10
2022-08-21T08:06:00.780Z,995.14
2022-08-21T08:07:00.781Z,995.11
2022-08-21T08:08:00.765Z,995.09
2022-08-21T08:09:00.757Z,995.11
2022-08-21T08:10:00.748Z,995.08
2022-08-21T08:11:00.742Z,995.10
2022-08-21T08:12:00.740Z,995.08
2022-08-21T08:13:00.934Z,995.11
2022-08-21T08:14:00.720Z,995.08
2022-08-21T08:15:00.710Z,995.08
2022-08-21T08:16:00.702Z,995.03
2022-08-21T08:17:00.696Z,994.99
2022-08-21T08:18:00.685Z,995.01
2022-08-21T08:19:00.678Z,995.01
2022-08-21T08:20:00.677Z,995.02
2022-08-21T08:21:00.665Z,995.00
2022-08-21T08:22:00.658Z,995.03
2022-08-21T08:23:00.788Z,995.01
2022-08-21T08:24:00.645Z,994.98
2022-08-21T08:25:00.639Z,995.00
2022-08-21T08:26:00.634Z,994.93
2022-08-21T08:27:00.625Z,994.95
2022-08-21T08:28:00.620Z,994.92
2022-08-21T08:29:00.616Z,994.91
2022-08-21T08:30:00.606Z,994.95
2022-08-21T08:31:00.598Z,994.93
2022-08-21T08:32:00.592Z,994.93
2022-08-21T08:33:00.868Z,994.93
2022-08-21T08:34:00.579Z,994.92
2022-08-21T08:35:00.576Z,994.94
2022-08-21T08:36:06.562Z,994.92
2022-08-21T08:37:00.565Z,994.89
2022-08-21T08:38:00.563Z,994.88
2022-08-21T08:39:00.554Z,994.87
2022-08-21T08:40:00.589Z,994.86
2022-08-21T08:41:00.543Z,994.89
2022-08-21T08:42:00.536Z,994.88
2022-08-21T08:43:01.056Z,994.84
2022-08-21T08:44:00.531Z,994.92
2022-08-21T08:45:00.523Z,994.86
2022-08-21T08:46:00.521Z,994.81
2022-08-21T08:47:00.513Z,994.83
2022-08-21T08:48:00.509Z,994.84
2022-08-21T08:49:00.524Z,994.81
2022-08-21T08:50:00.501Z,994.80
2022-08-21T08:51:00.495Z,994.82
2022-08-21T08:52:00.492Z,994.82
2022-08-21T08:53:00.782Z,994.78
2022-08-21T08:54:00.482Z,994.73
2022-08-21T08:55:00.479Z,994.75
2022-08-21T08:56:00.473Z,994.77
2022-08-21T08:57:00.471Z,994.75
2022-08-21T08:58:00.466Z,994.75
2022-08-21T08:59:00.461Z,994.74
2022-08-21T09:00:00.459Z,994.74
2022-08-21T09:01:00.478Z,994.73
2022-08-21T09:02:00.449Z,994.72
2022-08-21T09:03:00.644Z,994.69
2022-08-21T09:04:00.441Z,994.71
2022-08-21T09:05:00.445Z,994.68
2022-08-21T09:06:00.431Z,994.67
2022-08-21T09:07:00.432Z,994.65
2022-08-21T09:08:00.426Z,994.67
2022-08-21T09:09:00.429Z,994.64
2022-08-21T09:10:00.417Z,994.66
2022-08-21T09:11:00.415Z,994.60
2022-08-21T09:12:00.410Z,994.58
2022-08-21T09:13:00.694Z,994.63
2022-08-21T09:14:00.406Z,994.57
2022-08-21T09:15:00.413Z,994.60
2022-08-21T09:16:00.397Z,994.61
2022-08-21T09:17:00.400Z,994.58
2022-08-21T09:18:00.407Z,994.57
2022-08-21T09:19:00.388Z,994.56
2022-08-21T09:20:00.386Z,994.54
2022-08-21T09:21:00.380Z,994.53
2022-08-21T09:22:00.382Z,994.59
2022-08-21T09:23:00.604Z,994.50
2022-08-21T09:24:00.379Z,994.57
2022-08-21T09:25:00.408Z,994.54
2022-08-21T09:26:00.391Z,994.55
2022-08-21T09:27:00.363Z,994.52
2022-08-21T09:28:00.362Z,994.51
2022-08-21T09:29:00.357Z,994.49
2022-08-21T09:30:00.355Z,994.47
2022-08-21T09:31:00.352Z,994.45
2022-08-21T09:32:00.351Z,994.49
2022-08-21T09:33:00.594Z,994.47
2022-08-21T09:34:00.342Z,994.50
2022-08-21T09:35:00.343Z,994.50
2022-08-21T09:36:00.340Z,994.49
2022-08-21T09:37:00.342Z,994.46
2022-08-21T09:38:00.335Z,994.54
2022-08-21T09:39:00.337Z,994.49
2022-08-21T09:40:00.375Z,994.52
2022-08-21T09:41:00.327Z,994.54
2022-08-21T09:42:00.327Z,994.53
2022-08-21T09:43:00.529Z,994.52
2022-08-21T09:44:00.323Z,994.54
2022-08-21T09:45:00.320Z,994.55
2022-08-21T09:46:00.319Z,994.52
2022-08-21T09:47:00.318Z,994.53
2022-08-21T09:48:00.316Z,994.56
2022-08-21T09:49:00.315Z,994.57
2022-08-21T09:50:00.315Z,994.56
2022-08-21T09:51:00.312Z,994.55
2022-08-21T09:52:00.312Z,994.47
2022-08-21T09:53:00.562Z,994.46
2022-08-21T09:54:00.303Z,994.45
2022-08-21T09:55:00.305Z,994.45
2022-08-21T09:56:00.303Z,994.42
2022-08-21T09:57:00.300Z,994.45
2022-08-21T09:58:00.299Z,994.50
2022-08-21T09:59:00.297Z,994.51
2022-08-21T10:00:00.307Z,994.52
2022-08-21T10:01:00.368Z,994.50
2022-08-21T10:02:00.293Z,994.51
2022-08-21T10:03:00.424Z,994.47
2022-08-21T10:04:00.300Z,994.45
2022-08-21T10:05:00.288Z,994.46
2022-08-21T10:06:00.292Z,994.46
2022-08-21T10:07:00.283Z,994.45
2022-08-21T10:08:00.291Z,994.36
2022-08-21T10:09:00.282Z,994.44
2022-08-21T10:10:00.285Z,994.45
2022-08-21T10:11:00.276Z,994.40
2022-08-21T10:12:00.281Z,994.35
2022-08-21T10:13:00.392Z,994.34
2022-08-21T10:14:00.271Z,994.38
2022-08-21T10:15:00.273Z,994.39
2022-08-21T10:16:00.274Z,994.39
2022-08-21T10:17:00.269Z,994.41
2022-08-21T10:18:00.266Z,994.33
2022-08-21T10:19:00.268Z,994.35
2022-08-21T10:20:00.267Z,994.30
2022-08-21T10:21:00.270Z,994.28
2022-08-21T10:22:00.267Z,994.30
2022-08-21T10:23:00.436Z,994.30
2022-08-21T10:24:00.257Z,994.31
2022-08-21T10:25:00.260Z,994.32
2022-08-21T10:26:13.235Z,994.34
2022-08-21T10:27:00.252Z,994.34
2022-08-21T10:28:00.249Z,994.30
2022-08-21T10:29:00.249Z,994.35
2022-08-21T10:30:00.264Z,994.34
2022-08-21T10:31:00.245Z,994.36
2022-08-21T10:32:00.241Z,994.32
2022-08-21T10:33:00.399Z,994.32
2022-08-21T10:34:00.235Z,994.30
2022-08-21T10:35:00.233Z,994.30
2022-08-21T10:36:00.232Z,994.25
2022-08-21T10:37:00.230Z,994.28
2022-08-21T10:38:00.232Z,994.31
2022-08-21T10:39:25.210Z,994.26
2022-08-21T10:40:00.327Z,994.29
2022-08-21T10:41:00.223Z,994.30
2022-08-21T10:42:00.237Z,994.26
2022-08-21T10:43:00.487Z,994.24
2022-08-21T10:44:00.218Z,994.24
2022-08-21T10:45:00.223Z,994.21
2022-08-21T10:46:00.220Z,994.22
2022-08-21T10:47:00.212Z,994.13
2022-08-21T10:48:00.210Z,994.13
2022-08-21T10:49:00.421Z,994.14
2022-08-21T10:50:00.210Z,994.14
2022-08-21T10:51:00.207Z,994.16
2022-08-21T10:52:00.204Z,994.10
2022-08-21T10:53:00.432Z,994.16
2022-08-21T10:54:00.204Z,994.13
2022-08-21T10:55:00.195Z,994.12
2022-08-21T10:56:00.196Z,994.15
2022-08-21T10:57:00.193Z,994.14
2022-08-21T10:58:00.198Z,994.09
2022-08-21T10:59:00.189Z,994.07
2022-08-21T11:00:00.196Z,994.08
2022-08-21T11:01:00.226Z,994.00
2022-08-21T11:02:00.183Z,994.05
2022-08-21T11:03:00.417Z,994.08
2022-08-21T11:04:00.178Z,994.00
2022-08-21T11:05:00.177Z,994.07
2022-08-21T11:06:00.176Z,993.99
2022-08-21T11:07:00.170Z,993.96
2022-08-21T11:08:01.165Z,994.01
2022-08-21T11:09:00.166Z,994.03
2022-08-21T11:10:00.188Z,993.99
2022-08-21T11:11:01.298Z,993.99
2022-08-21T11:12:11.491Z,994.01
2022-08-21T11:13:00.252Z,993.93
2022-08-21T11:14:00.159Z,993.92
2022-08-21T11:15:00.156Z,993.94
2022-08-21T11:16:00.161Z,994.02
2022-08-21T11:17:00.155Z,993.93
2022-08-21T11:18:00.157Z,993.94
2022-08-21T11:19:00.153Z,993.98
2022-08-21T11:20:00.162Z,993.92
2022-08-21T11:21:00.149Z,993.94
2022-08-21T11:22:00.148Z,993.88
2022-08-21T11:23:04.101Z,993.84
2022-08-21T11:24:00.149Z,993.81
2022-08-21T11:25:00.143Z,993.84
2022-08-21T11:26:00.143Z,993.80
2022-08-21T11:27:00.142Z,993.77
2022-08-21T11:28:00.140Z,993.69
2022-08-21T11:29:00.140Z,993.71
2022-08-21T11:30:00.202Z,993.76
2022-08-21T11:31:00.144Z,993.76
2022-08-21T11:32:00.137Z,993.80
2022-08-21T11:33:00.378Z,993.80
2022-08-21T11:34:00.135Z,993.78
2022-08-21T11:35:00.168Z,993.79
2022-08-21T11:36:00.136Z,993.79
2022-08-21T11:37:00.133Z,993.80
2022-08-21T11:38:00.138Z,993.82
2022-08-21T11:39:00.132Z,993.82
2022-08-21T11:40:00.239Z,993.78
2022-08-21T11:41:00.129Z,993.80
2022-08-21T11:42:00.130Z,993.80
2022-08-21T11:43:00.309Z,993.72
2022-08-21T11:44:00.129Z,993.70
2022-08-21T11:45:00.132Z,993.73
2022-08-21T11:46:00.130Z,993.73
2022-08-21T11:47:00.128Z,993.75
2022-08-21T11:48:00.136Z,993.77
2022-08-21T11:49:00.139Z,993.78
2022-08-21T11:50:00.151Z,993.75
2022-08-21T11:51:00.128Z,993.72
2022-08-21T11:52:00.128Z,993.69
2022-08-21T11:53:00.320Z,993.70
2022-08-21T11:54:00.132Z,993.71
2022-08-21T11:55:00.152Z,993.70
2022-08-21T11:56:00.129Z,993.66
2022-08-21T11:57:00.129Z,993.70
2022-08-21T11:58:00.131Z,993.75
2022-08-21T11:59:00.129Z,993.62
2022-08-21T12:00:00.141Z,993.66
2022-08-21T12:01:00.131Z,993.68
2022-08-21T12:02:00.229Z,993.71
2022-08-21T12:03:00.349Z,993.73
2022-08-21T12:04:00.130Z,993.72
2022-08-21T12:05:00.135Z,993.65
2022-08-21T12:06:00.133Z,993.64
2022-08-21T12:07:00.131Z,993.63
2022-08-21T12:08:01.066Z,993.62
2022-08-21T12:09:00.139Z,993.67
2022-08-21T12:10:00.132Z,993.63
2022-08-21T12:11:00.132Z,993.67
2022-08-21T12:12:00.136Z,993.61
2022-08-21T12:13:00.180Z,993.64
2022-08-21T12:14:00.136Z,993.60
2022-08-21T12:15:00.134Z,993.61
2022-08-21T12:16:00.134Z,993.53
2022-08-21T12:17:00.136Z,993.57
2022-08-21T12:18:00.138Z,993.56
2022-08-21T12:19:00.136Z,993.65
2022-08-21T12:20:00.174Z,993.61
2022-08-21T12:21:00.140Z,993.59
2022-08-21T12:22:00.142Z,993.60
2022-08-21T12:23:00.133Z,993.60
2022-08-21T12:24:00.138Z,993.55
2022-08-21T12:25:00.134Z,993.56
2022-08-21T12:26:00.143Z,993.52
2022-08-21T12:27:00.149Z,993.49
2022-08-21T12:28:00.141Z,993.53